createdAt,value
2018-06-25T00:00:28.191Z,6.10
2018-06-25T00:01:28.212Z,5.80
2018-06-25T00:02:28.235Z,6.20
2018-06-25T00:03:28.250Z,6.00
2018-06-25T00:04:28.269Z,5.70
2018-06-25T00:05:28.292Z,5.70
2018-06-25T00:06:28.312Z,6.20
2018-06-25T00:07:28.332Z,6.00
2018-06-25T00:08:28.352Z,5.90
2018-06-25T00:09:28.376Z,6.10
2018-06-25T00:10:28.393Z,5.60
2018-06-25T00:11:28.415Z,5.70
2018-06-25T00:12:28.436Z,5.60
2018-06-25T00:13:28.458Z,6.10
2018-06-25T00:14:28.480Z,5.80
2018-06-25T00:15:28.498Z,6.40
2018-06-25T00:16:28.515Z,6.00
2018-06-25T00:17:28.537Z,5.70
2018-06-25T00:18:28.560Z,6.80
2018-06-25T00:19:28.578Z,6.30
2018-06-25T00:20:28.597Z,6.80
2018-06-25T00:21:28.619Z,6.50
2018-06-25T00:22:28.642Z,7.20
2018-06-25T00:23:28.659Z,6.20
2018-06-25T00:24:28.681Z,6.70
2018-06-25T00:25:28.703Z,7.00
2018-06-25T00:26:28.720Z,7.20
2018-06-25T00:27:28.744Z,6.80
2018-06-25T00:28:28.764Z,6.10
2018-06-25T00:29:28.781Z,5.60
2018-06-25T00:30:28.802Z,6.10
2018-06-25T00:31:28.826Z,5.50
2018-06-25T00:32:28.846Z,5.90
2018-06-25T00:33:28.863Z,5.30
2018-06-25T00:34:28.885Z,5.30
2018-06-25T00:35:28.907Z,5.60
2018-06-25T00:36:28.924Z,5.90
2018-06-25T00:37:28.948Z,6.00
2018-06-25T00:38:28.968Z,5.60
2018-06-25T00:39:28.989Z,5.70
2018-06-25T00:40:29.011Z,5.10
2018-06-25T00:41:29.026Z,5.90
2018-06-25T00:42:29.046Z,5.60
2018-06-25T00:43:29.070Z,5.30
2018-06-25T00:44:29.090Z,5.50
2018-06-25T00:45:29.106Z,5.70
2018-06-25T00:46:29.130Z,6.20
2018-06-25T00:47:29.148Z,5.80
2018-06-25T00:48:29.168Z,5.40
2018-06-25T00:49:29.189Z,6.10
2018-06-25T00:50:29.211Z,5.70
2018-06-25T00:51:29.232Z,5.60
2018-06-25T00:52:29.250Z,5.50
2018-06-25T00:53:29.271Z,5.40
2018-06-25T00:54:29.296Z,5.80
2018-06-25T00:55:29.313Z,5.40
2018-06-25T00:56:29.333Z,5.00
2018-06-25T00:57:29.352Z,5.70
2018-06-25T00:58:29.373Z,6.30
2018-06-25T00:59:29.396Z,5.60
2018-06-25T01:00:29.416Z,5.30
2018-06-25T01:01:29.433Z,6.10
2018-06-25T01:02:29.457Z,5.60
2018-06-25T01:03:29.476Z,6.00
2018-06-25T01:04:29.495Z,6.10
2018-06-25T01:05:29.520Z,5.90
2018-06-25T01:06:29.538Z,6.20
2018-06-25T01:07:29.558Z,6.30
2018-06-25T01:08:29.582Z,6.00
2018-06-25T01:09:29.600Z,6.40
2018-06-25T01:10:29.625Z,6.30
2018-06-25T01:11:29.639Z,6.30
2018-06-25T01:12:29.660Z,6.10
2018-06-25T01:13:29.682Z,7.20
2018-06-25T01:14:29.701Z,6.60
2018-06-25T01:15:29.720Z,7.20
2018-06-25T01:16:29.740Z,7.00
2018-06-25T01:17:29.765Z,6.90
2018-06-25T01:18:29.781Z,6.70
2018-06-25T01:19:29.805Z,7.20
2018-06-25T01:20:29.828Z,6.80
2018-06-25T01:21:29.846Z,6.60
2018-06-25T01:22:29.864Z,7.40
2018-06-25T01:23:29.883Z,7.00
2018-06-25T01:24:29.903Z,6.80
2018-06-25T01:25:29.927Z,7.10
2018-06-25T01:26:29.948Z,7.10
2018-06-25T01:27:29.970Z,7.90
2018-06-25T01:28:29.988Z,7.50
2018-06-25T01:29:30.009Z,7.00
2018-06-25T01:30:30.027Z,8.20
2018-06-25T01:31:30.049Z,7.80
2018-06-25T01:32:30.070Z,7.90
2018-06-25T01:33:30.089Z,7.70
2018-06-25T01:34:30.112Z,7.40
2018-06-25T01:35:30.130Z,7.80
2018-06-25T01:36:30.151Z,8.30
2018-06-25T01:37:30.171Z,7.20
2018-06-25T01:38:30.190Z,7.50
2018-06-25T01:39:30.212Z,7.20
2018-06-25T01:40:30.230Z,7.30
2018-06-25T01:41:30.253Z,7.30
2018-06-25T01:42:30.272Z,7.90
2018-06-25T01:43:30.295Z,8.00
2018-06-25T01:44:30.313Z,8.20
2018-06-25T01:45:30.336Z,8.20
2018-06-25T01:46:30.356Z,8.50
2018-06-25T01:47:30.378Z,7.70
2018-06-25T01:48:30.399Z,8.50
2018-06-25T01:49:30.415Z,8.90
2018-06-25T01:50:30.437Z,8.20
2018-06-25T01:51:30.459Z,9.50
2018-06-25T01:52:30.476Z,9.40
2018-06-25T01:53:30.500Z,8.20
2018-06-25T01:54:30.520Z,7.90
2018-06-25T01:55:30.539Z,8.70
2018-06-25T01:56:30.559Z,8.50
2018-06-25T01:57:30.579Z,8.90
2018-06-25T01:58:30.600Z,9.40
2018-06-25T01:59:30.620Z,8.30
2018-06-25T02:00:30.643Z,8.50
2018-06-25T02:01:30.663Z,9.70
2018-06-25T02:02:30.687Z,9.80
2018-06-25T02:03:30.701Z,9.60
2018-06-25T02:04:30.725Z,9.60
2018-06-25T02:05:30.743Z,9.60
2018-06-25T02:06:30.762Z,9.50
2018-06-25T02:07:30.783Z,9.10
2018-06-25T02:08:30.805Z,10.50
2018-06-25T02:09:30.827Z,9.90
2018-06-25T02:10:30.844Z,9.40
2018-06-25T02:11:30.870Z,9.50
2018-06-25T02:12:30.886Z,9.90
2018-06-25T02:13:30.908Z,9.90
2018-06-25T02:14:30.928Z,9.20
2018-06-25T02:15:30.946Z,9.80
2018-06-25T02:16:30.978Z,10.20
2018-06-25T02:17:30.986Z,10.70
2018-06-25T02:18:31.008Z,10.40
2018-06-25T02:19:31.031Z,10.30
2018-06-25T02:20:31.052Z,10.60
2018-06-25T02:21:31.070Z,11.70
2018-06-25T02:22:31.092Z,11.20
2018-06-25T02:23:31.110Z,10.60
2018-06-25T02:24:31.129Z,11.80
2018-06-25T02:25:31.155Z,11.00
2018-06-25T02:26:31.170Z,11.00
2018-06-25T02:27:31.192Z,11.00
2018-06-25T02:28:31.214Z,11.70
2018-06-25T02:29:31.231Z,11.50
2018-06-25T02:30:31.254Z,11.90
2018-06-25T02:31:31.272Z,11.40
2018-06-25T02:32:31.291Z,11.20
2018-06-25T02:33:31.313Z,11.00
2018-06-25T02:34:31.339Z,12.10
2018-06-25T02:35:31.354Z,12.10
2018-06-25T02:36:31.376Z,11.90
2018-06-25T02:37:31.394Z,11.40
2018-06-25T02:38:31.479Z,12.30
2018-06-25T02:39:31.439Z,13.10
2018-06-25T02:40:31.458Z,11.30
2018-06-25T02:41:31.475Z,12.20
2018-06-25T02:42:31.497Z,11.20
2018-06-25T02:43:31.516Z,12.40
2018-06-25T02:44:31.536Z,12.20
2018-06-25T02:45:31.561Z,11.00
2018-06-25T02:46:31.580Z,12.40
2018-06-25T02:47:31.612Z,11.90
2018-06-25T02:48:31.619Z,11.70
2018-06-25T02:49:31.637Z,11.30
2018-06-25T02:50:31.657Z,11.70
2018-06-25T02:51:31.679Z,12.10
2018-06-25T02:52:31.698Z,11.30
2018-06-25T02:53:31.722Z,12.10
2018-06-25T02:54:31.742Z,11.80
2018-06-25T02:55:31.759Z,11.80
2018-06-25T02:56:31.782Z,11.80
2018-06-25T02:57:31.800Z,11.50
2018-06-25T02:58:31.821Z,12.60
2018-06-25T02:59:31.847Z,13.20
2018-06-25T03:00:31.861Z,13.00
2018-06-25T03:01:31.882Z,12.70
2018-06-25T03:02:31.902Z,11.90
2018-06-25T03:03:31.924Z,12.90
2018-06-25T03:04:31.941Z,12.70
2018-06-25T03:05:31.964Z,13.30
2018-06-25T03:06:31.982Z,12.50
2018-06-25T03:07:32.004Z,12.90
2018-06-25T03:08:32.022Z,12.70
2018-06-25T03:09:32.045Z,12.60
2018-06-25T03:10:32.063Z,12.50
2018-06-25T03:11:32.086Z,12.50
2018-06-25T03:12:32.107Z,12.00
2018-06-25T03:13:32.123Z,13.10
2018-06-25T03:14:32.145Z,14.40
2018-06-25T03:15:32.164Z,12.80
2018-06-25T03:16:32.184Z,14.10
2018-06-25T03:17:32.206Z,13.60
2018-06-25T03:18:32.224Z,13.90
2018-06-25T03:19:32.247Z,14.50
2018-06-25T03:20:32.268Z,13.30
2018-06-25T03:21:32.288Z,13.30
2018-06-25T03:22:32.309Z,14.10
2018-06-25T03:23:32.326Z,13.40
2018-06-25T03:24:32.346Z,14.50
2018-06-25T03:25:32.369Z,13.10
2018-06-25T03:26:32.392Z,13.10
2018-06-25T03:27:32.409Z,14.90
2018-06-25T03:28:32.428Z,14.00
2018-06-25T03:29:32.447Z,13.50
2018-06-25T03:30:32.469Z,13.30
2018-06-25T03:31:32.491Z,13.40
2018-06-25T03:32:32.507Z,13.60
2018-06-25T03:33:32.530Z,13.70
2018-06-25T03:34:32.548Z,14.30
2018-06-25T03:35:32.572Z,12.80
2018-06-25T03:36:32.588Z,13.90
2018-06-25T03:37:32.612Z,14.10
2018-06-25T03:38:32.664Z,13.10
2018-06-25T03:39:32.653Z,12.30
2018-06-25T03:40:32.669Z,14.50
2018-06-25T03:41:32.693Z,13.40
2018-06-25T03:42:32.710Z,14.00
2018-06-25T03:43:32.733Z,14.50
2018-06-25T03:44:32.752Z,13.90
2018-06-25T03:45:32.771Z,14.10
2018-06-25T03:46:32.791Z,14.20
2018-06-25T03:47:32.812Z,13.60
2018-06-25T03:48:32.831Z,13.30
2018-06-25T03:49:32.852Z,14.30
2018-06-25T03:50:32.872Z,13.90
2018-06-25T03:51:32.893Z,14.70
2018-06-25T03:52:32.913Z,13.40
2018-06-25T03:53:32.932Z,13.40
2018-06-25T03:54:32.955Z,15.30
2018-06-25T03:55:32.974Z,13.80
2018-06-25T03:56:32.994Z,13.70
2018-06-25T03:57:33.017Z,13.50
2018-06-25T03:58:33.036Z,13.70
2018-06-25T03:59:33.061Z,14.40
2018-06-25T04:00:33.077Z,13.50
2018-06-25T04:01:33.095Z,14.40
2018-06-25T04:02:33.117Z,14.50
2018-06-25T04:03:33.137Z,13.90
2018-06-25T04:04:33.158Z,14.60
2018-06-25T04:05:33.177Z,13.90
2018-06-25T04:06:33.198Z,14.00
2018-06-25T04:07:33.221Z,15.10
2018-06-25T04:08:33.239Z,14.70
2018-06-25T04:09:33.261Z,14.60
2018-06-25T04:10:33.279Z,13.80
2018-06-25T04:11:33.299Z,15.20
2018-06-25T04:12:33.319Z,14.90
2018-06-25T04:13:33.343Z,15.00
2018-06-25T04:14:33.363Z,14.10
2018-06-25T04:15:33.384Z,14.90
2018-06-25T04:16:33.401Z,15.10
2018-06-25T04:17:33.575Z,15.30
2018-06-25T04:18:33.445Z,15.80
2018-06-25T04:19:33.462Z,15.20
2018-06-25T04:20:33.485Z,16.10
2018-06-25T04:21:33.510Z,16.20
2018-06-25T04:22:33.524Z,15.80
2018-06-25T04:23:33.544Z,15.80
2018-06-25T04:24:33.564Z,16.50
2018-06-25T04:25:33.585Z,16.10
2018-06-25T04:26:33.606Z,15.60
2018-06-25T04:27:33.626Z,17.10
2018-06-25T04:28:33.697Z,16.00
2018-06-25T04:29:33.667Z,15.10
2018-06-25T04:30:33.706Z,16.40
2018-06-25T04:31:33.710Z,16.20
2018-06-25T04:32:33.727Z,16.60
2018-06-25T04:33:33.747Z,16.00
2018-06-25T04:34:33.769Z,14.80
2018-06-25T04:35:33.793Z,16.70
2018-06-25T04:36:33.808Z,15.80
2018-06-25T04:37:33.830Z,16.80
2018-06-25T04:38:33.849Z,16.00
2018-06-25T04:39:33.872Z,16.20
2018-06-25T04:40:33.893Z,15.50
2018-06-25T04:41:33.912Z,17.10
2018-06-25T04:42:33.931Z,16.90
2018-06-25T04:43:33.955Z,16.20
2018-06-25T04:44:33.973Z,17.60
2018-06-25T04:45:33.994Z,18.20
2018-06-25T04:46:34.014Z,17.30
2018-06-25T04:47:34.034Z,18.60
2018-06-25T04:48:34.054Z,16.90
2018-06-25T04:49:34.076Z,17.70
2018-06-25T04:50:34.116Z,16.70
2018-06-25T04:51:34.115Z,18.00
2018-06-25T04:52:34.139Z,17.70
2018-06-25T04:53:34.157Z,17.00
2018-06-25T04:54:34.177Z,18.00
2018-06-25T04:55:34.239Z,18.10
2018-06-25T04:56:34.217Z,17.40
2018-06-25T04:57:34.237Z,16.80
2018-06-25T04:58:34.260Z,17.60
2018-06-25T04:59:34.280Z,18.00
2018-06-25T05:00:34.304Z,17.80
2018-06-25T05:01:34.322Z,15.70
2018-06-25T05:02:34.346Z,17.10
2018-06-25T05:03:34.361Z,16.40
2018-06-25T05:04:34.381Z,17.80
2018-06-25T05:05:34.404Z,17.70
2018-06-25T05:06:34.425Z,17.40
2018-06-25T05:07:34.443Z,15.90
2018-06-25T05:08:34.462Z,17.80
2018-06-25T05:09:34.486Z,16.80
2018-06-25T05:10:34.507Z,16.90
2018-06-25T05:11:34.526Z,16.30
2018-06-25T05:12:34.547Z,15.70
2018-06-25T05:13:34.569Z,17.30
2018-06-25T05:14:34.589Z,17.60
2018-06-25T05:15:34.611Z,17.30
2018-06-25T05:16:34.630Z,18.10
2018-06-25T05:17:34.652Z,17.40
2018-06-25T05:18:34.669Z,17.50
2018-06-25T05:19:34.691Z,17.20
2018-06-25T05:20:34.714Z,17.50
2018-06-25T05:21:34.733Z,16.80
2018-06-25T05:22:34.754Z,17.60
2018-06-25T05:23:34.786Z,16.70
2018-06-25T05:24:34.795Z,17.40
2018-06-25T05:25:34.813Z,16.90
2018-06-25T05:26:34.839Z,18.10
2018-06-25T05:27:34.854Z,17.60
2018-06-25T05:28:34.873Z,17.30
2018-06-25T05:29:34.898Z,16.90
2018-06-25T05:30:34.919Z,17.80
2018-06-25T05:31:34.938Z,16.20
2018-06-25T05:32:34.957Z,16.90
2018-06-25T05:33:34.978Z,16.70
2018-06-25T05:34:35.000Z,17.70
2018-06-25T05:35:35.023Z,17.30
2018-06-25T05:36:35.043Z,16.50
2018-06-25T05:37:35.060Z,17.20
2018-06-25T05:38:35.081Z,17.60
2018-06-25T05:39:35.145Z,16.70
2018-06-25T05:40:35.174Z,14.80
2018-06-25T05:41:35.165Z,16.90
2018-06-25T05:42:35.163Z,17.10
2018-06-25T05:43:35.186Z,15.80
2018-06-25T05:44:35.204Z,16.60
2018-06-25T05:45:35.226Z,16.10
2018-06-25T05:46:35.246Z,16.40
2018-06-25T05:47:35.268Z,16.20
2018-06-25T05:48:35.289Z,15.70
2018-06-25T05:49:35.310Z,16.90
2018-06-25T05:50:35.331Z,16.10
2018-06-25T05:51:35.353Z,16.80
2018-06-25T05:52:35.372Z,15.80
2018-06-25T05:53:35.393Z,14.60
2018-06-25T05:54:35.416Z,16.80
2018-06-25T05:55:35.435Z,16.10
2018-06-25T05:56:35.455Z,15.70
2018-06-25T05:57:35.474Z,16.40
2018-06-25T05:58:35.495Z,15.80
2018-06-25T05:59:35.516Z,15.00
2018-06-25T06:00:35.536Z,16.50
2018-06-25T06:01:35.557Z,16.50
2018-06-25T06:02:35.580Z,15.40
2018-06-25T06:03:35.610Z,15.80
2018-06-25T06:04:35.621Z,16.10
2018-06-25T06:05:35.645Z,16.20
2018-06-25T06:06:35.664Z,17.30
2018-06-25T06:07:35.686Z,17.10
2018-06-25T06:08:35.706Z,16.20
2018-06-25T06:09:35.724Z,15.20
2018-06-25T06:10:35.748Z,16.30
2018-06-25T06:11:35.770Z,15.40
2018-06-25T06:12:35.787Z,19.70
2018-06-25T06:13:35.808Z,16.20
2018-06-25T06:14:35.830Z,14.90
2018-06-25T06:15:35.852Z,14.80
2018-06-25T06:16:35.872Z,14.80
2018-06-25T06:17:35.896Z,13.20
2018-06-25T06:18:35.917Z,14.00
2018-06-25T06:19:35.935Z,14.00
2018-06-25T06:20:35.955Z,13.90
2018-06-25T06:21:35.977Z,13.30
2018-06-25T06:22:36.006Z,12.70
2018-06-25T06:23:36.020Z,13.30
2018-06-25T06:24:36.043Z,12.40
2018-06-25T06:25:36.061Z,12.80
2018-06-25T06:26:36.086Z,13.70
2018-06-25T06:27:36.106Z,12.70
2018-06-25T06:28:36.123Z,14.00
2018-06-25T06:29:36.148Z,14.70
2018-06-25T06:30:36.170Z,13.40
2018-06-25T06:31:36.189Z,12.50
2018-06-25T06:32:36.210Z,13.20
2018-06-25T06:33:36.233Z,12.90
2018-06-25T06:34:36.256Z,12.30
2018-06-25T06:35:36.278Z,12.60
2018-06-25T06:36:36.298Z,12.50
2018-06-25T06:37:36.322Z,13.10
2018-06-25T06:38:36.342Z,12.80
2018-06-25T06:39:36.361Z,12.90
2018-06-25T06:40:36.386Z,12.70
2018-06-25T06:41:36.406Z,12.70
2018-06-25T06:42:36.425Z,12.90
2018-06-25T06:43:36.450Z,12.20
2018-06-25T06:44:36.468Z,12.40
2018-06-25T06:45:36.491Z,12.70
2018-06-25T06:46:36.513Z,11.70
2018-06-25T06:47:36.534Z,12.80
2018-06-25T06:48:36.557Z,12.10
2018-06-25T06:49:36.579Z,12.90
2018-06-25T06:50:36.600Z,13.90
2018-06-25T06:51:36.624Z,13.20
2018-06-25T06:52:36.641Z,13.10
2018-06-25T06:53:36.664Z,12.50
2018-06-25T06:54:36.684Z,12.10
2018-06-25T06:55:36.708Z,13.00
2018-06-25T06:56:36.733Z,12.60
2018-06-25T06:57:36.765Z,12.90
2018-06-25T06:58:36.773Z,13.50
2018-06-25T06:59:36.793Z,12.80
2018-06-25T07:00:36.813Z,13.40
2018-06-25T07:01:36.835Z,12.70
2018-06-25T07:02:36.862Z,12.70
2018-06-25T07:03:36.878Z,12.50
2018-06-25T07:04:36.912Z,12.50
2018-06-25T07:05:36.924Z,11.80
2018-06-25T07:06:36.945Z,11.00
2018-06-25T07:07:36.964Z,11.40
2018-06-25T07:08:36.985Z,11.60
2018-06-25T07:09:37.008Z,10.70
2018-06-25T07:10:37.029Z,11.30
2018-06-25T07:11:37.053Z,10.70
2018-06-25T07:12:37.073Z,10.60
2018-06-25T07:13:37.095Z,10.60
2018-06-25T07:14:37.118Z,10.50
2018-06-25T07:15:37.137Z,9.70
2018-06-25T07:16:37.158Z,11.00
2018-06-25T07:17:37.182Z,9.40
2018-06-25T07:18:37.203Z,10.40
2018-06-25T07:19:37.225Z,9.90
2018-06-25T07:20:37.247Z,10.60
2018-06-25T07:21:37.308Z,10.60
2018-06-25T07:22:37.293Z,9.90
2018-06-25T07:23:37.312Z,9.70
2018-06-25T07:24:37.332Z,9.30
2018-06-25T07:25:37.357Z,9.00
2018-06-25T07:26:37.376Z,8.80
2018-06-25T07:27:37.402Z,9.10
2018-06-25T07:28:37.422Z,9.30
2018-06-25T07:29:37.441Z,8.40
2018-06-25T07:30:37.470Z,8.80
2018-06-25T07:31:37.490Z,7.90
2018-06-25T07:32:37.511Z,7.80
2018-06-25T07:33:37.734Z,8.00
2018-06-25T07:34:37.556Z,8.50
2018-06-25T07:35:37.580Z,8.30
2018-06-25T07:36:37.602Z,9.00
2018-06-25T07:37:37.621Z,8.70
2018-06-25T07:38:37.650Z,8.80
2018-06-25T07:39:37.669Z,9.10
2018-06-25T07:40:37.693Z,8.00
2018-06-25T07:41:37.745Z,8.40
2018-06-25T07:42:37.737Z,8.40
2018-06-25T07:43:37.761Z,8.40
2018-06-25T07:44:37.780Z,8.70
2018-06-25T07:45:37.810Z,8.60
2018-06-25T07:46:37.826Z,9.10
2018-06-25T07:47:37.857Z,9.30
2018-06-25T07:48:37.870Z,10.10
2018-06-25T07:49:37.895Z,10.50
2018-06-25T07:50:37.914Z,9.20
2018-06-25T07:51:37.941Z,8.80
2018-06-25T07:52:37.960Z,9.80
2018-06-25T07:53:38.082Z,9.60
2018-06-25T07:54:38.008Z,8.90
2018-06-25T07:55:38.027Z,8.80
2018-06-25T07:56:38.049Z,9.30
2018-06-25T07:57:38.072Z,9.10
2018-06-25T07:58:38.095Z,8.80
2018-06-25T07:59:38.117Z,9.60
2018-06-25T08:00:38.141Z,9.60
2018-06-25T08:01:38.165Z,10.50
2018-06-25T08:02:38.186Z,9.30
2018-06-25T08:03:38.240Z,9.80
2018-06-25T08:04:38.231Z,9.60
2018-06-25T08:05:38.258Z,9.70
2018-06-25T08:06:38.276Z,9.90
2018-06-25T08:07:38.299Z,10.20
2018-06-25T08:08:38.318Z,10.20
2018-06-25T08:09:38.341Z,10.60
2018-06-25T08:10:38.363Z,10.60
2018-06-25T08:11:38.387Z,10.90
2018-06-25T08:12:38.410Z,11.40
2018-06-25T08:13:38.432Z,9.50
2018-06-25T08:14:38.456Z,10.30
2018-06-25T08:15:38.477Z,9.40
2018-06-25T08:16:38.517Z,10.30
2018-06-25T08:17:38.525Z,9.60
2018-06-25T08:18:38.554Z,9.70
2018-06-25T08:19:38.567Z,9.70
2018-06-25T08:20:38.593Z,8.80
2018-06-25T08:21:38.618Z,8.80
2018-06-25T08:22:38.637Z,9.00
2018-06-25T08:23:38.657Z,8.70
2018-06-25T08:24:38.681Z,9.50
2018-06-25T08:25:38.705Z,10.40
2018-06-25T08:26:38.726Z,9.90
2018-06-25T08:27:38.750Z,9.70
2018-06-25T08:28:38.771Z,9.90
2018-06-25T08:29:38.866Z,9.60
2018-06-25T08:30:38.818Z,9.40
2018-06-25T08:31:38.838Z,10.30
2018-06-25T08:32:38.863Z,11.20
2018-06-25T08:33:38.885Z,11.00
2018-06-25T08:34:38.910Z,10.30
2018-06-25T08:35:38.937Z,11.20
2018-06-25T08:36:38.952Z,11.40
2018-06-25T08:37:38.977Z,10.00
2018-06-25T08:38:39.002Z,10.50
2018-06-25T08:39:39.023Z,10.90
2018-06-25T08:40:39.050Z,10.60
2018-06-25T08:41:39.072Z,11.60
2018-06-25T08:42:39.092Z,10.80
2018-06-25T08:43:39.131Z,10.70
2018-06-25T08:44:39.141Z,9.90
2018-06-25T08:45:39.166Z,11.30
2018-06-25T08:46:39.189Z,11.40
2018-06-25T08:47:39.214Z,10.50
2018-06-25T08:48:39.233Z,9.40
2018-06-25T08:49:39.259Z,9.70
2018-06-25T08:50:39.279Z,10.10
2018-06-25T08:51:39.329Z,9.80
2018-06-25T08:52:39.326Z,8.90
2018-06-25T08:53:39.349Z,8.40
2018-06-25T08:54:39.376Z,8.70
2018-06-25T08:55:39.397Z,8.60
2018-06-25T08:56:39.419Z,8.50
2018-06-25T08:57:39.445Z,8.30
2018-06-25T08:58:39.467Z,9.20
2018-06-25T08:59:39.490Z,8.00
2018-06-25T09:00:39.515Z,9.60
2018-06-25T09:01:39.540Z,8.50
2018-06-25T09:02:39.561Z,9.20
2018-06-25T09:03:39.584Z,8.30
2018-06-25T09:04:39.610Z,8.70
2018-06-25T09:05:39.632Z,8.50
2018-06-25T09:06:39.653Z,8.60
2018-06-25T09:07:39.680Z,7.50
2018-06-25T09:08:39.702Z,8.10
2018-06-25T09:09:39.783Z,7.10
2018-06-25T09:10:39.948Z,7.20
2018-06-25T09:11:39.770Z,7.80
2018-06-25T09:12:39.797Z,7.30
2018-06-25T09:13:40.321Z,8.10
2018-06-25T09:14:39.850Z,8.30
2018-06-25T09:15:39.868Z,7.80
2018-06-25T09:16:39.891Z,6.70
2018-06-25T09:17:39.915Z,7.00
2018-06-25T09:18:39.938Z,6.00
2018-06-25T09:19:39.961Z,7.50
2018-06-25T09:20:39.985Z,7.40
2018-06-25T09:21:40.008Z,7.50
2018-06-25T09:22:40.029Z,8.00
2018-06-25T09:23:40.052Z,6.60
2018-06-25T09:24:40.074Z,7.00
2018-06-25T09:25:40.098Z,6.60
2018-06-25T09:26:40.123Z,7.50
2018-06-25T09:27:40.186Z,6.70
2018-06-25T09:28:40.171Z,6.70
2018-06-25T09:29:40.194Z,7.60
2018-06-25T09:30:40.220Z,5.90
2018-06-25T09:31:40.245Z,6.40
2018-06-25T09:32:40.269Z,7.00
2018-06-25T09:33:40.289Z,6.60
2018-06-25T09:34:40.313Z,5.90
2018-06-25T09:35:40.337Z,6.00
2018-06-25T09:36:40.363Z,5.60
2018-06-25T09:37:40.381Z,6.30
2018-06-25T09:38:40.408Z,6.50
2018-06-25T09:39:40.429Z,5.90
2018-06-25T09:40:40.455Z,5.80
2018-06-25T09:41:40.716Z,5.60
2018-06-25T09:42:40.501Z,4.50
2018-06-25T09:43:40.529Z,4.30
2018-06-25T09:44:40.548Z,4.70
2018-06-25T09:45:40.576Z,4.20
2018-06-25T09:46:40.600Z,4.30
2018-06-25T09:47:40.622Z,4.60
2018-06-25T09:48:40.645Z,4.20
2018-06-25T09:49:40.670Z,5.10
2018-06-25T09:50:40.694Z,4.60
2018-06-25T09:51:40.718Z,4.70
2018-06-25T09:52:40.742Z,5.10
2018-06-25T09:53:40.769Z,4.70
2018-06-25T09:54:40.854Z,4.80
2018-06-25T09:55:40.815Z,4.90
2018-06-25T09:56:40.839Z,4.60
2018-06-25T09:57:40.868Z,5.10
2018-06-25T09:58:40.891Z,4.60
2018-06-25T09:59:40.912Z,4.10
2018-06-25T10:00:40.939Z,4.30
2018-06-25T10:01:40.962Z,5.60
2018-06-25T10:02:40.984Z,4.60
2018-06-25T10:03:41.008Z,4.40
2018-06-25T10:04:41.038Z,4.40
2018-06-25T10:05:41.059Z,4.70
2018-06-25T10:06:41.083Z,4.50
2018-06-25T10:07:41.109Z,4.30
2018-06-25T10:08:41.157Z,4.50
2018-06-25T10:09:41.159Z,4.60
2018-06-25T10:10:41.217Z,4.40
2018-06-25T10:11:41.206Z,4.10
2018-06-25T10:12:41.481Z,4.60
2018-06-25T10:13:41.258Z,4.00
2018-06-25T10:14:41.274Z,4.20
2018-06-25T10:15:41.306Z,4.80
2018-06-25T10:16:41.327Z,4.00
2018-06-25T10:17:41.350Z,4.50
2018-06-25T10:18:41.371Z,4.50
2018-06-25T10:19:41.402Z,4.40
2018-06-25T10:20:41.424Z,4.20
2018-06-25T10:21:41.449Z,4.30
2018-06-25T10:22:41.470Z,4.70
2018-06-25T10:23:41.495Z,3.70
2018-06-25T10:24:41.519Z,3.90
2018-06-25T10:25:41.544Z,3.90
2018-06-25T10:26:41.571Z,4.20
2018-06-25T10:27:41.595Z,3.90
2018-06-25T10:28:41.617Z,3.50
2018-06-25T10:29:41.641Z,3.90
2018-06-25T10:30:41.669Z,3.50
2018-06-25T10:31:41.697Z,4.80
2018-06-25T10:32:41.718Z,4.00
2018-06-25T10:33:41.896Z,4.50
2018-06-25T10:34:41.797Z,4.50
2018-06-25T10:35:41.791Z,4.40
2018-06-25T10:36:41.819Z,4.60
2018-06-25T10:37:41.879Z,4.40
2018-06-25T10:38:41.862Z,4.30
2018-06-25T10:39:41.937Z,4.50
2018-06-25T10:40:41.913Z,4.40
2018-06-25T10:41:41.935Z,4.50
2018-06-25T10:42:41.966Z,4.30
2018-06-25T10:43:41.986Z,3.90
2018-06-25T10:44:42.007Z,4.00
2018-06-25T10:45:42.032Z,3.50
2018-06-25T10:46:42.056Z,3.90
2018-06-25T10:47:42.081Z,4.00
2018-06-25T10:48:42.106Z,4.60
2018-06-25T10:49:42.128Z,4.10
2018-06-25T10:50:42.154Z,3.90
2018-06-25T10:51:42.180Z,3.90
2018-06-25T10:52:42.203Z,4.40
2018-06-25T10:53:42.226Z,3.90
2018-06-25T10:54:42.253Z,3.90
2018-06-25T10:55:42.274Z,4.30
2018-06-25T10:56:42.298Z,6.30
2018-06-25T10:57:42.326Z,6.30
2018-06-25T10:58:42.354Z,4.90
2018-06-25T10:59:42.424Z,5.10
2018-06-25T11:00:42.395Z,5.60
2018-06-25T11:01:42.422Z,6.50
2018-06-25T11:02:42.449Z,5.10
2018-06-25T11:03:42.468Z,4.80
2018-06-25T11:04:42.494Z,4.50
2018-06-25T11:05:42.516Z,4.90
2018-06-25T11:06:42.545Z,5.10
2018-06-25T11:07:42.666Z,4.40
2018-06-25T11:08:42.597Z,4.70
2018-06-25T11:09:42.621Z,4.40
2018-06-25T11:10:42.639Z,4.10
2018-06-25T11:11:42.667Z,4.50
2018-06-25T11:12:42.753Z,3.90
2018-06-25T11:13:42.713Z,4.00
2018-06-25T11:14:42.741Z,4.60
2018-06-25T11:15:42.762Z,4.10
2018-06-25T11:16:42.788Z,4.20
2018-06-25T11:17:42.814Z,4.00
2018-06-25T11:18:42.838Z,4.20
2018-06-25T11:19:42.866Z,3.90
2018-06-25T11:20:42.887Z,3.40
2018-06-25T11:21:42.911Z,3.60
2018-06-25T11:22:42.936Z,4.00
2018-06-25T11:23:42.958Z,3.60
2018-06-25T11:24:42.982Z,3.70
2018-06-25T11:25:43.011Z,4.10
2018-06-25T11:26:43.099Z,4.10
2018-06-25T11:27:43.110Z,3.90
2018-06-25T11:28:43.081Z,3.70
2018-06-25T11:29:43.107Z,3.50
2018-06-25T11:30:43.133Z,3.90
2018-06-25T11:31:43.157Z,3.90
2018-06-25T11:32:43.180Z,4.10
2018-06-25T11:33:43.205Z,4.20
2018-06-25T11:34:43.231Z,4.10
2018-06-25T11:35:43.262Z,4.30
2018-06-25T11:36:43.282Z,4.10
2018-06-25T11:37:43.309Z,4.90
2018-06-25T11:38:43.330Z,4.80
2018-06-25T11:39:43.358Z,4.00
2018-06-25T11:40:43.381Z,4.50
2018-06-25T11:41:43.459Z,3.70
2018-06-25T11:42:43.432Z,3.60
2018-06-25T11:43:43.458Z,3.60
2018-06-25T11:44:43.483Z,3.70
2018-06-25T11:45:43.506Z,3.60
2018-06-25T11:46:43.529Z,3.60
2018-06-25T11:47:43.554Z,4.00
2018-06-25T11:48:43.578Z,4.00
2018-06-25T11:49:43.606Z,4.30
2018-06-25T11:50:43.646Z,3.70
2018-06-25T11:51:43.691Z,3.50
2018-06-25T11:52:43.681Z,3.50
2018-06-25T11:53:43.714Z,3.40
2018-06-25T11:54:43.728Z,3.20
2018-06-25T11:55:43.755Z,3.40
2018-06-25T11:56:43.780Z,3.60
2018-06-25T11:57:43.805Z,4.20
2018-06-25T11:58:43.832Z,3.60
2018-06-25T11:59:43.853Z,4.50
2018-06-25T12:00:43.878Z,3.80
2018-06-25T12:01:43.974Z,3.80
2018-06-25T12:02:44.218Z,3.80
2018-06-25T12:03:43.956Z,3.70
2018-06-25T12:04:43.980Z,4.10
2018-06-25T12:05:44.003Z,4.20
2018-06-25T12:06:44.028Z,4.00
2018-06-25T12:07:44.053Z,3.70
2018-06-25T12:08:44.084Z,3.90
2018-06-25T12:09:44.105Z,3.90
2018-06-25T12:10:44.239Z,3.70
2018-06-25T12:11:44.156Z,3.60
2018-06-25T12:12:44.181Z,3.20
2018-06-25T12:13:44.205Z,3.20
2018-06-25T12:14:44.231Z,3.00
2018-06-25T12:15:44.257Z,3.50
2018-06-25T12:16:44.282Z,3.10
2018-06-25T12:17:44.305Z,3.50
2018-06-25T12:18:44.332Z,3.30
2018-06-25T12:19:44.399Z,3.50
2018-06-25T12:20:44.379Z,2.90
2018-06-25T12:21:44.404Z,3.10
2018-06-25T12:22:44.448Z,3.40
2018-06-25T12:23:44.455Z,3.10
2018-06-25T12:24:44.481Z,2.50
2018-06-25T12:25:44.509Z,2.60
2018-06-25T12:26:44.532Z,2.50
2018-06-25T12:27:44.625Z,3.40
2018-06-25T12:28:44.585Z,3.00
2018-06-25T12:29:44.612Z,3.00
2018-06-25T12:30:44.635Z,3.50
2018-06-25T12:31:44.661Z,3.80
2018-06-25T12:32:44.689Z,3.70
2018-06-25T12:33:44.715Z,3.40
2018-06-25T12:34:44.741Z,3.10
2018-06-25T12:35:44.767Z,3.50
2018-06-25T12:36:44.789Z,3.40
2018-06-25T12:37:44.854Z,4.20
2018-06-25T12:38:44.844Z,3.40
2018-06-25T12:39:44.866Z,3.00
2018-06-25T12:40:44.892Z,3.40
2018-06-25T12:41:44.920Z,3.60
2018-06-25T12:42:44.944Z,3.50
2018-06-25T12:43:44.977Z,3.10
2018-06-25T12:44:44.997Z,3.00
2018-06-25T12:45:45.021Z,3.30
2018-06-25T12:46:45.057Z,2.70
2018-06-25T12:47:45.073Z,3.20
2018-06-25T12:48:45.099Z,3.20
2018-06-25T12:49:45.122Z,3.60
2018-06-25T12:50:45.151Z,3.80
2018-06-25T12:51:45.179Z,3.70
2018-06-25T12:52:45.199Z,3.30
2018-06-25T12:53:45.227Z,3.50
2018-06-25T12:54:45.471Z,3.60
2018-06-25T12:55:45.280Z,3.80
2018-06-25T12:56:45.306Z,3.50
2018-06-25T12:57:45.330Z,4.00
2018-06-25T12:58:45.354Z,4.10
2018-06-25T12:59:45.382Z,3.20
2018-06-25T13:00:45.407Z,3.30
2018-06-25T13:01:45.431Z,3.30
2018-06-25T13:02:45.459Z,3.50
2018-06-25T13:03:45.483Z,3.80
2018-06-25T13:04:45.509Z,3.50
2018-06-25T13:05:45.536Z,3.30
2018-06-25T13:06:45.560Z,3.30
2018-06-25T13:07:45.590Z,3.50